createdAt,value
2019-02-05T00:04:42.181Z,10.13
2019-02-05T00:07:27.245Z,11.20
2019-02-05T00:10:21.164Z,10.93
2019-02-05T00:13:05.605Z,10.50
2019-02-05T00:15:50.926Z,10.67
2019-02-05T00:18:44.864Z,10.87
2019-02-05T00:21:29.665Z,10.50
2019-02-05T00:24:14.584Z,10.53
2019-02-05T00:26:59.606Z,11.30
2019-02-05T00:29:53.276Z,10.70
2019-02-05T00:32:37.732Z,10.10
2019-02-05T00:35:22.847Z,10.20
2019-02-05T00:38:07.973Z,10.70
2019-02-05T00:41:01.712Z,10.93
2019-02-05T00:43:46.872Z,10.53
2019-02-05T00:46:40.592Z,11.10
2019-02-05T00:49:25.441Z,10.67
2019-02-05T00:52:10.124Z,11.13
2019-02-05T00:54:55.210Z,10.77
2019-02-05T00:57:40.632Z,10.60
2019-02-05T01:00:34.017Z,10.77
2019-02-05T01:03:19.056Z,10.47
2019-02-05T01:06:12.988Z,10.37
2019-02-05T01:08:58.069Z,10.07
2019-02-05T01:11:44.212Z,11.07
2019-02-05T01:14:28.993Z,11.17
2019-02-05T01:17:13.869Z,10.03
2019-02-05T01:20:07.884Z,10.40
2019-02-05T01:23:01.997Z,10.10
2019-02-05T01:25:57.404Z,10.80
2019-02-05T01:28:42.285Z,10.40
2019-02-05T01:31:27.356Z,10.07
2019-02-05T01:34:21.688Z,10.30
2019-02-05T01:37:15.276Z,10.20
2019-02-05T01:40:00.096Z,10.57
2019-02-05T01:42:45.572Z,10.27
2019-02-05T01:45:38.984Z,9.70
2019-02-05T01:48:23.656Z,10.10
2019-02-05T01:51:08.343Z,9.53
2019-02-05T01:53:53.291Z,10.17
2019-02-05T01:56:40.846Z,9.93
2019-02-05T01:59:24.079Z,9.67
2019-02-05T02:02:08.691Z,10.20
2019-02-05T02:04:53.188Z,10.10
2019-02-05T02:07:47.015Z,10.00
2019-02-05T02:10:40.947Z,10.67
2019-02-05T02:13:25.695Z,11.17
2019-02-05T02:16:10.058Z,10.80
2019-02-05T02:18:54.851Z,11.00
2019-02-05T02:21:39.010Z,11.43
2019-02-05T02:24:32.864Z,10.13
2019-02-05T02:27:18.251Z,11.40
2019-02-05T02:30:03.305Z,11.53
2019-02-05T02:32:48.292Z,11.63
2019-02-05T02:35:33.030Z,11.40
2019-02-05T02:38:17.654Z,11.67
2019-02-05T02:41:10.989Z,11.27
2019-02-05T02:43:55.612Z,11.33
2019-02-05T02:46:40.192Z,11.60
2019-02-05T02:49:25.336Z,12.27
2019-02-05T02:52:10.263Z,11.73
2019-02-05T02:54:54.462Z,12.10
2019-02-05T02:57:39.767Z,12.07
2019-02-05T03:00:25.278Z,11.87
2019-02-05T03:03:18.789Z,12.17
2019-02-05T03:06:03.592Z,11.13
2019-02-05T03:08:48.655Z,12.27
2019-02-05T03:11:44.144Z,11.93
2019-02-05T03:14:28.912Z,12.80
2019-02-05T03:17:13.924Z,13.23
2019-02-05T03:19:58.835Z,12.07
2019-02-05T03:22:45.372Z,12.53
2019-02-05T03:25:39.358Z,13.50
2019-02-05T03:28:24.235Z,13.23
2019-02-05T03:31:09.057Z,12.87
2019-02-05T03:33:54.167Z,12.67
2019-02-05T03:36:48.112Z,12.60
2019-02-05T03:39:42.377Z,11.67
2019-02-05T03:42:35.949Z,12.13
2019-02-05T03:45:20.982Z,12.33
2019-02-05T03:48:06.967Z,12.70
2019-02-05T03:50:51.595Z,12.07
2019-02-05T03:53:36.076Z,12.20
2019-02-05T03:56:20.707Z,11.60
2019-02-05T03:59:05.482Z,12.37
2019-02-05T04:01:59.290Z,12.23
2019-02-05T04:04:52.948Z,12.60
2019-02-05T04:07:37.402Z,11.97
2019-02-05T04:10:22.656Z,12.37
2019-02-05T04:13:08.175Z,11.77
2019-02-05T04:15:54.202Z,12.90
2019-02-05T04:18:48.168Z,12.40
2019-02-05T04:21:42.015Z,12.43
2019-02-05T04:24:27.425Z,13.10
2019-02-05T04:27:21.188Z,13.10
2019-02-05T04:30:14.957Z,14.17
2019-02-05T04:32:59.751Z,13.03
2019-02-05T04:35:44.697Z,13.03
2019-02-05T04:38:29.545Z,12.57
2019-02-05T04:41:23.776Z,13.40
2019-02-05T04:44:17.503Z,12.73
2019-02-05T04:47:02.537Z,12.90
2019-02-05T04:49:56.355Z,13.20
2019-02-05T04:52:40.734Z,13.20
2019-02-05T04:55:25.755Z,14.10
2019-02-05T04:58:10.519Z,13.53
2019-02-05T05:00:55.763Z,12.73
2019-02-05T05:03:40.740Z,13.47
2019-02-05T05:06:34.436Z,12.03
2019-02-05T05:09:19.223Z,13.40
2019-02-05T05:12:04.144Z,13.17
2019-02-05T05:14:49.256Z,13.03
2019-02-05T05:17:43.163Z,13.87
2019-02-05T05:20:28.023Z,13.90
2019-02-05T05:23:12.557Z,12.27
2019-02-05T05:25:56.876Z,12.77
2019-02-05T05:28:50.440Z,12.27
2019-02-05T05:31:35.039Z,13.13
2019-02-05T05:34:20.193Z,13.53
2019-02-05T05:37:14.555Z,13.27
2019-02-05T05:40:07.823Z,12.07
2019-02-05T05:42:52.342Z,12.53
2019-02-05T05:45:37.283Z,12.93
2019-02-05T05:48:22.714Z,12.93
2019-02-05T05:51:16.943Z,12.60
2019-02-05T05:54:10.433Z,13.90
2019-02-05T05:56:55.415Z,14.47
2019-02-05T05:59:39.916Z,14.10
2019-02-05T06:02:24.938Z,13.77
2019-02-05T06:05:09.487Z,13.60
2019-02-05T06:07:54.232Z,13.30
2019-02-05T06:10:39.256Z,13.27
2019-02-05T06:13:24.452Z,13.20
2019-02-05T06:16:18.115Z,14.23
2019-02-05T06:19:03.129Z,13.37
2019-02-05T06:21:47.876Z,13.87
2019-02-05T06:24:32.990Z,12.80
2019-02-05T06:27:17.406Z,15.07
2019-02-05T06:30:11.848Z,14.23
2019-02-05T06:33:06.128Z,15.63
2019-02-05T06:35:59.977Z,15.70
2019-02-05T06:38:44.942Z,14.93
2019-02-05T06:41:30.900Z,14.47
2019-02-05T06:44:15.811Z,15.70
2019-02-05T06:47:00.843Z,15.73
2019-02-05T06:49:54.858Z,14.57
2019-02-05T06:52:40.055Z,14.43
2019-02-05T06:55:25.339Z,15.17
2019-02-05T06:58:09.791Z,14.03
2019-02-05T07:01:03.951Z,14.10
2019-02-05T07:03:57.447Z,15.00
2019-02-05T07:06:42.072Z,14.40
2019-02-05T07:09:36.092Z,14.27
2019-02-05T07:12:20.820Z,14.37
2019-02-05T07:15:06.196Z,14.37
2019-02-05T07:18:00.144Z,14.83
2019-02-05T07:20:44.995Z,14.17
2019-02-05T07:23:29.246Z,15.43
2019-02-05T07:26:13.951Z,14.60
2019-02-05T07:29:02.083Z,13.80
2019-02-05T07:31:45.063Z,14.70
2019-02-05T07:34:29.865Z,14.10
2019-02-05T07:37:15.206Z,14.87
2019-02-05T07:40:00.663Z,15.07
2019-02-05T07:42:46.159Z,16.40
2019-02-05T07:45:31.150Z,14.93
2019-02-05T07:48:15.878Z,15.57
2019-02-05T07:51:00.712Z,14.90
2019-02-05T07:53:45.640Z,15.47
2019-02-05T07:56:30.404Z,15.73
2019-02-05T07:59:15.485Z,15.67
2019-02-05T08:02:00.643Z,15.63
2019-02-05T08:04:54.055Z,15.37
2019-02-05T08:07:39.351Z,16.20
2019-02-05T08:10:33.155Z,16.00
2019-02-05T08:13:26.767Z,15.70
2019-02-05T08:16:11.395Z,16.97
2019-02-05T08:18:56.828Z,16.53
2019-02-05T08:21:42.132Z,15.27
2019-02-05T08:24:38.544Z,15.87
2019-02-05T08:27:23.311Z,15.80
2019-02-05T08:30:07.839Z,17.00
2019-02-05T08:32:54.470Z,17.73
2019-02-05T08:35:39.463Z,17.10
2019-02-05T08:38:24.396Z,16.30
2019-02-05T08:41:09.047Z,17.73
2019-02-05T08:43:54.387Z,24.57
2019-02-05T08:46:48.005Z,19.10
2019-02-05T08:49:32.938Z,19.13
2019-02-05T08:52:17.592Z,17.53
2019-02-05T08:55:03.206Z,16.57
2019-02-05T08:57:56.562Z,18.03
2019-02-05T09:00:50.767Z,17.30
2019-02-05T09:03:36.534Z,17.40
2019-02-05T09:06:20.994Z,18.17
2019-02-05T09:09:14.656Z,19.03
2019-02-05T09:12:08.674Z,17.70
2019-02-05T09:14:53.482Z,16.87
2019-02-05T09:17:38.427Z,17.10
2019-02-05T09:20:32.773Z,16.23
2019-02-05T09:23:26.953Z,16.60
2019-02-05T09:26:12.006Z,16.17
2019-02-05T09:28:56.772Z,16.80
2019-02-05T09:31:41.390Z,17.37
2019-02-05T09:34:35.012Z,15.53
2019-02-05T09:37:20.058Z,15.53
2019-02-05T09:40:13.878Z,15.60
2019-02-05T09:43:00.438Z,15.70
2019-02-05T09:45:54.393Z,16.53
2019-02-05T09:48:39.370Z,16.27
2019-02-05T09:51:33.561Z,15.97
2019-02-05T09:54:27.395Z,15.50
2019-02-05T09:57:11.740Z,15.73
2019-02-05T09:59:56.635Z,15.90
2019-02-05T10:02:41.353Z,15.60
2019-02-05T10:05:26.290Z,15.60
2019-02-05T10:08:10.867Z,15.60
2019-02-05T10:10:55.759Z,15.00
2019-02-05T10:13:41.090Z,16.00
2019-02-05T10:16:35.311Z,16.43
2019-02-05T10:19:29.320Z,15.23
2019-02-05T10:22:23.656Z,16.20
2019-02-05T10:25:37.694Z,15.30
2019-02-05T10:28:32.103Z,16.63
2019-02-05T10:31:27.011Z,17.70
2019-02-05T10:34:12.319Z,17.93
2019-02-05T10:37:06.076Z,17.37
2019-02-05T10:39:51.039Z,17.33
2019-02-05T10:42:45.414Z,18.40
2019-02-05T10:45:39.799Z,17.30
2019-02-05T10:48:25.071Z,19.23
2019-02-05T10:51:10.100Z,18.00
2019-02-05T10:53:54.430Z,17.10
2019-02-05T10:56:39.094Z,16.13
2019-02-05T10:59:24.215Z,16.73
2019-02-05T11:02:09.175Z,15.30
2019-02-05T11:04:54.363Z,14.93
2019-02-05T11:07:39.564Z,15.50
2019-02-05T11:10:33.203Z,16.27
2019-02-05T11:13:18.918Z,15.53
2019-02-05T11:16:04.007Z,15.20
2019-02-05T11:18:48.927Z,16.50
2019-02-05T11:21:33.932Z,18.13
2019-02-05T11:24:19.623Z,17.77
2019-02-05T11:27:04.626Z,17.60
2019-02-05T11:29:49.299Z,17.83
2019-02-05T11:32:34.411Z,17.67
2019-02-05T11:35:19.355Z,17.67
2019-02-05T11:38:04.676Z,17.27
2019-02-05T11:40:59.359Z,17.37
2019-02-05T11:43:44.904Z,16.77
2019-02-05T11:46:29.943Z,15.37
2019-02-05T11:49:24.125Z,15.83
2019-02-05T11:52:18.399Z,16.17
2019-02-05T11:55:11.999Z,15.43
2019-02-05T11:57:57.247Z,15.50
2019-02-05T12:01:15.738Z,13.97
2019-02-05T12:04:00.350Z,14.90
2019-02-05T12:06:53.765Z,14.13
2019-02-05T12:09:38.335Z,15.07
2019-02-05T12:12:23.135Z,13.83
2019-02-05T12:15:08.890Z,14.87
2019-02-05T12:18:02.983Z,16.07
2019-02-05T12:20:56.604Z,15.40
2019-02-05T12:23:41.027Z,15.13
2019-02-05T12:26:30.717Z,13.63
2019-02-05T12:29:34.519Z,13.90
2019-02-05T12:32:19.554Z,14.20
2019-02-05T12:35:04.455Z,14.77
2019-02-05T12:37:50.213Z,14.83
2019-02-05T12:40:35.225Z,15.17
2019-02-05T12:43:20.387Z,13.97
2019-02-05T12:46:05.360Z,14.73
2019-02-05T12:48:59.617Z,15.23
2019-02-05T12:51:53.847Z,14.80
2019-02-05T12:54:47.884Z,14.27
2019-02-05T12:57:32.598Z,14.57
2019-02-05T13:00:26.212Z,14.40
2019-02-05T13:03:11.034Z,15.20
2019-02-05T13:05:55.827Z,14.17
2019-02-05T13:08:50.464Z,14.60
2019-02-05T13:11:34.887Z,13.83
2019-02-05T13:14:19.167Z,14.20
2019-02-05T13:17:04.342Z,14.07
2019-02-05T13:19:49.848Z,13.87
2019-02-05T13:22:43.729Z,13.83
2019-02-05T13:25:38.984Z,13.73
2019-02-05T13:28:23.825Z,13.63
2019-02-05T13:31:08.836Z,12.77
2019-02-05T13:33:53.767Z,14.57
2019-02-05T13:36:37.943Z,12.30
2019-02-05T13:39:22.350Z,13.00
2019-02-05T13:42:16.027Z,12.60
2019-02-05T13:45:09.799Z,12.73
2019-02-05T13:47:54.675Z,12.33
2019-02-05T13:50:39.599Z,11.73
2019-02-05T13:53:24.659Z,11.90
2019-02-05T13:56:18.481Z,12.47
2019-02-05T13:59:03.499Z,13.00
2019-02-05T14:01:58.000Z,12.27
2019-02-05T14:04:50.875Z,11.70
2019-02-05T14:07:36.182Z,10.90
2019-02-05T14:10:21.237Z,11.47
2019-02-05T14:13:15.183Z,10.93
2019-02-05T14:16:00.064Z,11.87
2019-02-05T14:18:54.857Z,11.87
2019-02-05T14:21:30.902Z,12.60
2019-02-05T14:24:15.843Z,12.03
2019-02-05T14:27:00.583Z,11.97
2019-02-05T14:29:45.560Z,12.33
2019-02-05T14:32:30.798Z,10.63
2019-02-05T14:35:24.875Z,11.10
2019-02-05T14:38:18.492Z,12.70
2019-02-05T14:41:03.320Z,12.73
2019-02-05T14:43:48.255Z,13.57
2019-02-05T14:46:33.195Z,10.17
2019-02-05T14:49:27.106Z,10.47
2019-02-05T14:52:20.943Z,9.63
2019-02-05T14:55:05.438Z,10.50
2019-02-05T14:58:00.080Z,10.07
2019-02-05T15:00:45.944Z,9.93
2019-02-05T15:03:30.661Z,10.33
2019-02-05T15:06:14.881Z,10.17
2019-02-05T15:09:08.754Z,10.07
2019-02-05T15:12:03.096Z,9.93
2019-02-05T15:14:56.623Z,9.60
2019-02-05T15:17:41.487Z,8.93
2019-02-05T15:20:35.360Z,9.30
2019-02-05T15:23:20.695Z,11.97
2019-02-05T15:26:05.872Z,12.57
2019-02-05T15:28:52.995Z,11.33
2019-02-05T15:31:38.558Z,12.70
2019-02-05T15:34:32.595Z,12.23
2019-02-05T15:37:25.810Z,29.73
2019-02-05T15:40:10.662Z,45.83
2019-02-05T15:42:55.611Z,19.60
2019-02-05T15:45:40.577Z,22.23
2019-02-05T15:48:25.163Z,28.87
2019-02-05T15:51:09.403Z,24.57
2019-02-05T15:53:54.231Z,16.80
2019-02-05T15:56:38.967Z,9.80
2019-02-05T15:59:24.663Z,9.97
2019-02-05T16:02:09.472Z,10.67
2019-02-05T16:04:54.435Z,9.63
2019-02-05T16:07:48.620Z,8.33
2019-02-05T16:10:45.673Z,7.27
2019-02-05T16:13:30.883Z,7.30
2019-02-05T16:16:24.899Z,8.00
2019-02-05T16:19:09.870Z,8.30
2019-02-05T16:22:03.614Z,7.60
2019-02-05T16:24:48.961Z,6.73
2019-02-05T16:27:42.660Z,6.93
2019-02-05T16:30:37.088Z,8.83
2019-02-05T16:33:34.425Z,13.40
2019-02-05T16:36:27.934Z,13.63
2019-02-05T16:39:12.878Z,12.73
2019-02-05T16:42:06.791Z,17.70
2019-02-05T16:44:51.596Z,8.10
2019-02-05T16:47:36.087Z,7.50
2019-02-05T16:50:21.430Z,7.03
2019-02-05T16:53:15.396Z,7.47
2019-02-05T16:56:00.791Z,6.97
2019-02-05T16:58:46.300Z,7.33
2019-02-05T17:01:31.342Z,7.13
2019-02-05T17:04:16.023Z,6.80
2019-02-05T17:07:00.769Z,6.40
2019-02-05T17:09:45.348Z,5.90
2019-02-05T17:12:30.555Z,6.03
2019-02-05T17:15:15.449Z,6.03
2019-02-05T17:18:00.151Z,6.50
2019-02-05T17:20:45.271Z,7.13
2019-02-05T17:23:39.723Z,6.73
2019-02-05T17:26:33.392Z,7.43
2019-02-05T17:29:18.083Z,7.57
2019-02-05T17:32:02.414Z,6.63
2019-02-05T17:34:46.871Z,6.70
2019-02-05T17:37:32.324Z,6.83
2019-02-05T17:40:17.001Z,6.10
2019-02-05T17:43:02.536Z,7.07
2019-02-05T17:45:56.467Z,6.67
2019-02-05T17:48:50.147Z,6.53
2019-02-05T17:51:35.199Z,6.57
2019-02-05T17:54:29.151Z,6.27
2019-02-05T17:57:13.495Z,6.50
2019-02-05T17:59:58.392Z,7.73
2019-02-05T18:02:51.416Z,7.70
2019-02-05T18:05:28.729Z,5.80
2019-02-05T18:08:22.315Z,6.63
2019-02-05T18:11:07.438Z,5.47
2019-02-05T18:14:01.220Z,6.33
2019-02-05T18:16:45.862Z,6.90
2019-02-05T18:19:30.581Z,6.30
2019-02-05T18:22:15.342Z,6.37
2019-02-05T18:25:00.476Z,6.03
2019-02-05T18:27:54.281Z,6.00
2019-02-05T18:30:39.739Z,5.63
2019-02-05T18:33:33.767Z,6.07
2019-02-05T18:36:27.207Z,5.67
2019-02-05T18:39:12.590Z,8.03
2019-02-05T18:42:08.061Z,6.53
2019-02-05T18:44:52.987Z,6.23
2019-02-05T18:47:37.660Z,7.37
2019-02-05T18:50:22.515Z,6.57
2019-02-05T18:53:07.935Z,6.60
2019-02-05T18:56:01.683Z,7.53
2019-02-05T18:58:55.075Z,7.40
2019-02-05T19:01:39.799Z,7.53
2019-02-05T19:04:25.116Z,6.43
2019-02-05T19:07:10.284Z,6.77
2019-02-05T19:10:03.807Z,6.40
2019-02-05T19:12:57.820Z,8.83
2019-02-05T19:15:42.572Z,9.33
2019-02-05T19:18:27.989Z,8.63
2019-02-05T19:21:41.593Z,8.83
2019-02-05T19:24:51.908Z,6.03
2019-02-05T19:27:55.676Z,6.43
2019-02-05T19:30:41.515Z,7.10
2019-02-05T19:33:43.470Z,6.50
2019-02-05T19:36:37.378Z,6.57
2019-02-05T19:39:23.991Z,5.83
2019-02-05T19:42:18.311Z,5.87
2019-02-05T19:51:57.286Z,6.30
2019-02-05T19:54:45.573Z,5.77
2019-02-05T19:57:39.767Z,7.95
2019-02-05T20:00:33.711Z,5.87
2019-02-05T20:03:18.314Z,5.73
2019-02-05T20:06:04.823Z,6.00
2019-02-05T20:08:48.016Z,5.90
2019-02-05T20:11:45.259Z,6.23
2019-02-05T20:14:39.211Z,6.20
2019-02-05T20:17:33.479Z,6.37
2019-02-05T20:20:27.239Z,6.87
2019-02-05T20:23:21.320Z,6.40
2019-02-05T20:26:06.620Z,6.17
2019-02-05T20:28:51.879Z,6.97
2019-02-05T20:31:36.631Z,6.50
2019-02-05T20:34:21.182Z,6.10
2019-02-05T20:37:14.184Z,6.63
2019-02-05T20:39:58.686Z,6.97
2019-02-05T20:42:44.047Z,6.93
2019-02-05T20:45:28.671Z,6.90
2019-02-05T20:48:13.339Z,6.87
2019-02-05T20:50:57.778Z,6.83
2019-02-05T20:53:42.024Z,6.80
2019-02-05T20:56:35.932Z,7.00
2019-02-05T20:59:21.050Z,8.57
2019-02-05T21:02:14.902Z,9.00
2019-02-05T21:04:59.698Z,7.53
2019-02-05T21:07:44.892Z,7.50
2019-02-05T21:10:38.364Z,8.27
2019-02-05T21:13:23.362Z,7.57
2019-02-05T21:16:10.917Z,7.63
2019-02-05T21:18:56.039Z,7.13
2019-02-05T21:21:40.462Z,6.60
2019-02-05T21:24:26.256Z,7.47
2019-02-05T21:27:19.740Z,7.30
2019-02-05T21:30:04.528Z,6.87
2019-02-05T21:32:48.056Z,8.90
2019-02-05T21:35:34.064Z,8.43
2019-02-05T21:38:18.814Z,9.83
2019-02-05T21:41:03.472Z,9.93
2019-02-05T21:43:48.557Z,9.40
2019-02-05T21:46:33.948Z,10.77
2019-02-05T21:49:27.699Z,11.33
2019-02-05T21:52:12.630Z,12.67
2019-02-05T21:55:07.015Z,11.90
2019-02-05T21:57:51.937Z,10.43
2019-02-05T22:00:36.696Z,11.33
2019-02-05T22:03:22.183Z,11.53
2019-02-05T22:06:07.310Z,11.60
2019-02-05T22:08:51.978Z,10.30
2019-02-05T22:11:36.635Z,10.97
2019-02-05T22:14:21.138Z,11.80
2019-02-05T22:17:06.302Z,11.87
2019-02-05T22:19:51.596Z,10.13
2019-02-05T22:22:45.631Z,11.13
2019-02-05T22:25:39.523Z,11.90
2019-02-05T22:28:24.600Z,11.37
2019-02-05T22:31:18.719Z,10.90
2019-02-05T22:34:12.411Z,11.67
2019-02-05T22:36:57.591Z,13.20
2019-02-05T22:39:51.464Z,12.00
2019-02-05T22:42:36.575Z,13.20
2019-02-05T22:45:30.710Z,13.13
2019-02-05T22:48:24.397Z,13.80
2019-02-05T22:51:09.968Z,13.00
2019-02-05T22:53:55.172Z,14.27
2019-02-05T22:56:40.731Z,14.73
2019-02-05T22:59:35.244Z,13.80
2019-02-05T23:02:20.708Z,16.00
2019-02-05T23:05:05.764Z,14.60
2019-02-05T23:07:50.961Z,15.03
2019-02-05T23:10:45.968Z,14.70
2019-02-05T23:13:30.666Z,14.67
2019-02-05T23:16:14.911Z,14.57
2019-02-05T23:18:59.619Z,13.77
2019-02-05T23:21:56.087Z,14.07
2019-02-05T23:24:49.735Z,15.03
2019-02-05T23:27:34.127Z,14.33
2019-02-05T23:30:19.056Z,13.70
2019-02-05T23:33:04.071Z,13.47
2019-02-05T23:35:48.915Z,14.43
2019-02-05T23:38:33.974Z,14.43
2019-02-05T23:41:27.716Z,14.57
2019-02-05T23:44:13.182Z,15.07
2019-02-05T23:47:06.479Z,14.80
2019-02-05T23:49:51.757Z,14.87
2019-02-05T23:52:37.359Z,15.17
2019-02-05T23:55:22.479Z,13.57
2019-02-05T23:58:07.447Z,14.60
